Time;durP1;ratioP1;P1;durP2;ratioP2;P2;SDS_P1;SDS_P2;PMS_P1;PMS_P2;Temp;Humidity;BMP_temperature;BMP_pressure;BME280_temperature;BME280_humidity;BME280_pressure;Samples;Min_cycle;Max_cycle;Signal;HPM_P1;HPM_P2
2023/04/08 00:00:56;;;;;;;;;;;;;;;6.93;100.00;100888.97;4918663;29;19934;-86
2023/04/08 00:03:21;;;;;;;;;;;;;;;6.97;100.00;100886.13;4902356;29;19927;-87
2023/04/08 00:05:47;;;;;;;;;;;;;;;6.99;100.00;100885.03;4915908;29;19969;-87
2023/04/08 00:08:13;;;;;;;;;;;;;;;7.00;100.00;100888.53;4894304;29;19920;-86
2023/04/08 00:10:38;;;;;;;;;;;;;;;7.03;100.00;100885.66;4910601;29;19998;-86
2023/04/08 00:13:04;;;;;;;;;;;;;;;7.00;100.00;100881.50;4916715;29;19934;-87
2023/04/08 00:15:29;;;;;;;;;;;;;;;6.98;100.00;100883.38;4836807;29;19930;-86
2023/04/08 00:17:55;;;;;;;;;;;;;;;7.04;100.00;100890.00;4895055;29;19919;-85
2023/04/08 00:20:22;;;;;;;;;;;;;;;7.04;100.00;100888.19;4909363;29;19948;-85
2023/04/08 00:22:48;;;;;;;;;;;;;;;7.01;100.00;100890.19;4893067;29;19954;-80
2023/04/08 00:25:13;;;;;;;;;;;;;;;7.02;100.00;100884.00;4925375;29;19919;-80
2023/04/08 00:27:39;;;;;;;;;;;;;;;7.03;100.00;100881.25;4902951;29;19946;-86
2023/04/08 00:30:05;;;;;;;;;;;;;;;7.02;100.00;100879.59;4909590;29;19927;-86
2023/04/08 00:32:31;;;;;;;;;;;;;;;7.04;100.00;100872.41;4896138;29;20057;-87
2023/04/08 00:34:57;;;;;;;;;;;;;;;7.04;100.00;100876.84;4916246;29;20006;-85
2023/04/08 00:37:23;;;;;;;;;;;;;;;7.04;100.00;100876.84;4905499;29;20062;-85
2023/04/08 00:39:49;;;;;;;;;;;;;;;7.05;100.00;100879.38;4885561;29;20014;-86
2023/04/08 00:42:16;;;;;;;;;;;;;;;7.11;100.00;100885.13;4882513;29;19939;-86
2023/04/08 00:44:41;;;;;;;;;;;;;;;7.14;100.00;100885.75;4900866;29;19923;-86
2023/04/08 00:47:10;;;;;;;;;;;;;;;7.19;100.00;100888.03;4912623;29;19926;-86
2023/04/08 00:49:36;;;;;;;;;;;;;;;7.22;100.00;100889.59;4915065;29;19919;-86
2023/04/08 00:52:02;;;;;;;;;;;;;;;7.15;100.00;100881.34;4912990;29;19924;-86
2023/04/08 00:54:29;;;;;;;;;;;;;;;7.11;100.00;100879.88;4876431;29;19926;-85
2023/04/08 00:56:55;;;;;;;;;;;;;;;7.09;100.00;100879.97;4897033;29;19927;-86
2023/04/08 00:59:21;;;;;;;;;;;;;;;7.06;100.00;100880.19;4894300;29;19924;-87
2023/04/08 01:01:55;;;;;;;;;;;;;;;7.03;100.00;100888.31;4907161;29;20283;-87
2023/04/08 01:04:59;;;;;;;;;;;;;;;7.01;100.00;100884.94;4898071;29;19923;-86
2023/04/08 01:07:28;;;;;;;;;;;;;;;6.94;100.00;100889.81;4860602;29;19928;-87
2023/04/08 01:09:55;;;;;;;;;;;;;;;6.95;100.00;100888.84;4844125;29;20331;-86
2023/04/08 01:12:28;;;;;;;;;;;;;;;6.98;100.00;100888.63;4872653;29;19930;-87
2023/04/08 01:14:57;;;;;;;;;;;;;;;7.07;100.00;100887.16;4892638;29;20010;-86
2023/04/08 01:17:23;;;;;;;;;;;;;;;7.16;100.00;100891.75;4922037;29;19946;-86
2023/04/08 01:19:49;;;;;;;;;;;;;;;7.23;100.00;100892.13;4888850;29;19969;-86
2023/04/08 01:22:25;;;;;;;;;;;;;;;7.25;100.00;100898.09;4895323;29;20307;-86
2023/04/08 01:24:56;;;;;;;;;;;;;;;7.24;100.00;100899.06;4902266;29;20021;-86
2023/04/08 01:27:22;;;;;;;;;;;;;;;7.23;100.00;100901.81;4933363;29;19946;-86
2023/04/08 01:29:48;;;;;;;;;;;;;;;7.22;100.00;100886.97;4919476;29;19957;-87
2023/04/08 01:32:15;;;;;;;;;;;;;;;7.25;100.00;100890.22;4915384;29;19983;-86
2023/04/08 01:34:41;;;;;;;;;;;;;;;7.26;100.00;100899.78;4883037;29;20431;-86
2023/04/08 01:37:08;;;;;;;;;;;;;;;7.24;100.00;100893.81;4905461;29;20537;-86
2023/04/08 01:39:34;;;;;;;;;;;;;;;7.19;100.00;100893.31;4911634;29;20006;-86
2023/04/08 01:42:01;;;;;;;;;;;;;;;7.12;100.00;100895.53;4900331;29;19923;-86
2023/04/08 01:44:27;;;;;;;;;;;;;;;7.05;100.00;100895.16;4848215;29;20356;-87
2023/04/08 01:46:53;;;;;;;;;;;;;;;6.98;100.00;100893.88;4907909;29;20022;-86
2023/04/08 01:49:21;;;;;;;;;;;;;;;6.95;100.00;100904.63;4917373;29;19923;-86
2023/04/08 01:51:47;;;;;;;;;;;;;;;6.92;100.00;100904.84;4888007;29;19923;-86
2023/04/08 01:54:13;;;;;;;;;;;;;;;6.85;100.00;100898.34;4909023;29;19993;-86
2023/04/08 01:56:41;;;;;;;;;;;;;;;6.83;100.00;100901.91;4934473;29;19919;-86
2023/04/08 01:59:09;;;;;;;;;;;;;;;6.80;100.00;100896.06;4898899;29;20189;-87
2023/04/08 02:01:35;;;;;;;;;;;;;;;6.79;100.00;100900.47;4898629;29;20504;-87
2023/04/08 02:04:02;;;;;;;;;;;;;;;6.77;100.00;100899.72;4930176;29;20010;-87
2023/04/08 02:06:28;;;;;;;;;;;;;;;6.75;100.00;100899.00;4911817;29;19919;-86
2023/04/08 02:08:54;;;;;;;;;;;;;;;6.77;100.00;100897.09;4931035;29;19966;-86
2023/04/08 02:11:20;;;;;;;;;;;;;;;6.79;100.00;100892.56;4929989;29;19923;-86
2023/04/08 02:13:46;;;;;;;;;;;;;;;6.82;100.00;100902.03;4920757;29;19919;-86
2023/04/08 02:16:30;;;;;;;;;;;;;;;6.82;100.00;100888.88;4907660;29;19927;-86
2023/04/08 02:18:59;;;;;;;;;;;;;;;6.79;100.00;100887.31;4915409;29;19966;-86
2023/04/08 02:21:29;;;;;;;;;;;;;;;6.76;100.00;100879.66;4925315;29;19937;-87
2023/04/08 02:23:56;;;;;;;;;;;;;;;6.76;100.00;100892.78;4910752;29;19966;-86
2023/04/08 02:26:23;;;;;;;;;;;;;;;6.74;100.00;100888.56;4937738;28;20013;-87
2023/04/08 02:28:49;;;;;;;;;;;;;;;6.72;100.00;100886.06;4908969;29;19926;-86
2023/04/08 02:31:16;;;;;;;;;;;;;;;6.72;100.00;100879.97;4933543;29;20375;-86
2023/04/08 02:33:44;;;;;;;;;;;;;;;6.74;100.00;100883.31;4922922;29;19926;-86
2023/04/08 02:36:11;;;;;;;;;;;;;;;6.71;100.00;100876.50;4932629;29;19927;-86
2023/04/08 02:38:37;;;;;;;;;;;;;;;6.71;100.00;100876.50;4920064;29;19919;-86
2023/04/08 02:41:02;;;;;;;;;;;;;;;6.70;100.00;100875.66;4930526;29;19926;-86
2023/04/08 02:43:31;;;;;;;;;;;;;;;6.71;100.00;100876.50;4899218;29;19923;-86
2023/04/08 02:45:58;;;;;;;;;;;;;;;6.69;100.00;100879.25;4904663;29;19923;-86
2023/04/08 02:48:24;;;;;;;;;;;;;;;6.68;100.00;100869.69;4918457;29;20666;-86
2023/04/08 02:50:50;;;;;;;;;;;;;;;6.66;100.00;100868.94;4924106;29;19929;-86
2023/04/08 02:53:15;;;;;;;;;;;;;;;6.64;100.00;100875.28;4933799;29;19981;-86
2023/04/08 02:55:41;;;;;;;;;;;;;;;6.61;100.00;100875.50;4891901;29;20456;-80
2023/04/08 02:58:07;;;;;;;;;;;;;;;6.62;100.00;100874.53;4929273;29;19929;-80
2023/04/08 03:00:32;;;;;;;;;;;;;;;6.57;100.00;100872.22;4943161;28;19919;-80
2023/04/08 03:02:58;;;;;;;;;;;;;;;6.53;100.00;100874.22;4931769;29;19931;-87
2023/04/08 03:05:25;;;;;;;;;;;;;;;6.50;100.00;100874.44;4923468;29;19922;-86
2023/04/08 03:07:50;;;;;;;;;;;;;;;6.52;100.00;100872.56;4931784;29;19918;-86
2023/04/08 03:10:16;;;;;;;;;;;;;;;6.54;100.00;100872.44;4900450;29;19929;-86
2023/04/08 03:12:41;;;;;;;;;;;;;;;6.51;100.00;100884.00;4924566;29;19974;-86
2023/04/08 03:15:07;;;;;;;;;;;;;;;6.50;100.00;100884.94;4920259;29;19919;-86
2023/04/08 03:17:33;;;;;;;;;;;;;;;6.49;100.00;100883.28;4898045;29;19986;-86
2023/04/08 03:19:59;;;;;;;;;;;;;;;6.50;100.00;100878.88;4896169;29;19919;-87
2023/04/08 03:22:25;;;;;;;;;;;;;;;6.47;100.00;100877.28;4910617;29;20490;-87
2023/04/08 03:24:50;;;;;;;;;;;;;;;6.46;100.00;100880.88;4902480;29;19935;-86
2023/04/08 03:27:16;;;;;;;;;;;;;;;6.48;100.00;100886.00;4923030;29;20013;-87
2023/04/08 03:29:42;;;;;;;;;;;;;;;6.46;100.00;100888.75;4907566;29;19963;-86
2023/04/08 03:32:07;;;;;;;;;;;;;;;6.48;100.00;100894.72;4922306;29;19936;-79
2023/04/08 03:34:34;;;;;;;;;;;;;;;6.45;100.00;100872.13;4926264;29;20010;-79
2023/04/08 03:36:59;;;;;;;;;;;;;;;6.42;100.00;100880.22;4947088;29;20346;-86
2023/04/08 03:39:25;;;;;;;;;;;;;;;6.48;100.00;100880.75;4926184;29;19918;-86
2023/04/08 03:41:51;;;;;;;;;;;;;;;6.53;100.00;100882.09;4911979;29;19930;-86
2023/04/08 03:44:16;;;;;;;;;;;;;;;6.62;100.00;100875.38;4923618;29;19923;-86
2023/04/08 03:46:42;;;;;;;;;;;;;;;6.68;100.00;100874.94;4940791;29;19929;-86
2023/04/08 03:49:08;;;;;;;;;;;;;;;6.74;100.00;100880.69;4939389;29;19918;-87
2023/04/08 03:51:33;;;;;;;;;;;;;;;6.77;100.00;100883.94;4940429;29;20462;-87
2023/04/08 03:53:59;;;;;;;;;;;;;;;6.83;100.00;100882.69;4936687;29;19930;-86
2023/04/08 03:56:24;;;;;;;;;;;;;;;6.89;100.00;100884.88;4906006;29;20321;-86
2023/04/08 03:58:50;;;;;;;;;;;;;;;6.98;100.00;100899.16;4926600;29;19920;-86
2023/04/08 04:01:16;;;;;;;;;;;;;;;7.07;100.00;100897.66;4936966;29;19923;-86
2023/04/08 04:03:41;;;;;;;;;;;;;;;7.15;100.00;100894.47;4921336;29;19923;-86
2023/04/08 04:06:07;;;;;;;;;;;;;;;7.22;100.00;100885.19;4932998;29;19945;-86
2023/04/08 04:08:33;;;;;;;;;;;;;;;7.25;100.00;100878.84;4924447;29;19918;-86
2023/04/08 04:10:59;;;;;;;;;;;;;;;7.23;100.00;100884.22;4942266;29;19955;-86
2023/04/08 04:13:24;;;;;;;;;;;;;;;7.23;100.00;100865.00;4905089;29;19923;-85
2023/04/08 04:15:50;;;;;;;;;;;;;;;7.22;100.00;100868.56;4922612;29;19919;-86
2023/04/08 04:18:15;;;;;;;;;;;;;;;7.17;100.00;100856.59;4961936;28;19923;-85
2023/04/08 04:20:41;;;;;;;;;;;;;;;7.14;100.00;100859.47;4918752;29;19918;-86
2023/04/08 04:23:07;;;;;;;;;;;;;;;7.13;100.00;100844.66;4924046;29;19923;-86
2023/04/08 04:25:33;;;;;;;;;;;;;;;7.09;100.00;100852.88;4942694;29;20340;-86
2023/04/08 04:28:00;;;;;;;;;;;;;;;7.04;100.00;100845.31;4906700;29;19966;-79
2023/04/08 04:30:26;;;;;;;;;;;;;;;7.02;100.00;100855.94;4949241;28;20017;-79
2023/04/08 04:32:52;;;;;;;;;;;;;;;7.00;100.00;100849.09;4931398;29;19923;-87
2023/04/08 04:35:17;;;;;;;;;;;;;;;6.97;100.00;100858.06;4945011;29;19966;-86
2023/04/08 04:37:43;;;;;;;;;;;;;;;6.98;100.00;100849.22;4948699;28;19922;-86
2023/04/08 04:40:09;;;;;;;;;;;;;;;6.99;100.00;100847.44;4923206;29;19926;-86
2023/04/08 04:42:34;;;;;;;;;;;;;;;6.99;100.00;100847.44;4928891;29;19930;-86
2023/04/08 04:45:00;;;;;;;;;;;;;;;6.93;100.00;100851.31;4931112;29;19926;-86
2023/04/08 04:47:26;;;;;;;;;;;;;;;6.91;100.00;100850.63;4918884;29;19923;-86
2023/04/08 04:49:51;;;;;;;;;;;;;;;6.93;100.00;100864.47;4922236;29;19942;-87
2023/04/08 04:52:17;;;;;;;;;;;;;;;6.97;100.00;100863.31;4939450;29;19988;-86
2023/04/08 04:54:42;;;;;;;;;;;;;;;7.01;100.00;100858.66;4928215;29;19922;-87
2023/04/08 04:57:09;;;;;;;;;;;;;;;7.02;100.00;100863.81;4928193;29;19959;-86
2023/04/08 04:59:35;;;;;;;;;;;;;;;6.99;100.00;100853.50;4936150;29;20398;-86
2023/04/08 05:02:01;;;;;;;;;;;;;;;6.99;100.00;100861.38;4919470;29;20025;-86
2023/04/08 05:04:27;;;;;;;;;;;;;;;6.98;100.00;100854.47;4909193;29;19926;-86
2023/04/08 05:06:52;;;;;;;;;;;;;;;6.98;100.00;100866.75;4923308;29;19919;-86
2023/04/08 05:09:18;;;;;;;;;;;;;;;7.00;100.00;100863.09;4916844;29;19918;-86
2023/04/08 05:11:44;;;;;;;;;;;;;;;7.00;100.00;100870.97;4908109;29;19922;-86
2023/04/08 05:14:09;;;;;;;;;;;;;;;7.02;100.00;100876.13;4920027;29;19929;-86
2023/04/08 05:16:35;;;;;;;;;;;;;;;7.00;100.00;100868.34;4923861;29;20606;-86
2023/04/08 05:19:00;;;;;;;;;;;;;;;6.98;100.00;100877.28;4934870;29;20268;-86
2023/04/08 05:21:26;;;;;;;;;;;;;;;6.95;100.00;100870.47;4937370;29;20048;-86
2023/04/08 05:23:53;;;;;;;;;;;;;;;6.91;100.00;100872.47;4936350;29;20762;-86
2023/04/08 05:26:20;;;;;;;;;;;;;;;6.89;100.00;100863.00;4933981;29;19927;-86
2023/04/08 05:28:46;;;;;;;;;;;;;;;6.87;100.00;100871.00;4908733;29;20013;-86
2023/04/08 05:31:14;;;;;;;;;;;;;;;6.83;100.00;100869.56;4936419;29;20637;-86
2023/04/08 05:33:39;;;;;;;;;;;;;;;6.80;100.00;100878.47;4934251;29;20307;-86
2023/04/08 05:36:05;;;;;;;;;;;;;;;6.80;100.00;100885.53;4921749;29;19923;-86
2023/04/08 05:38:31;;;;;;;;;;;;;;;6.80;100.00;100888.16;4913527;29;19922;-86
2023/04/08 05:40:56;;;;;;;;;;;;;;;6.80;100.00;100889.00;4923024;29;19918;-86
2023/04/08 05:43:22;;;;;;;;;;;;;;;6.80;100.00;100890.81;4930433;29;19925;-86
2023/04/08 05:45:48;;;;;;;;;;;;;;;6.81;100.00;100895.09;4918552;29;20059;-86
2023/04/08 05:48:13;;;;;;;;;;;;;;;6.81;100.00;100895.09;4937676;29;20295;-87
2023/04/08 05:50:39;;;;;;;;;;;;;;;6.82;100.00;100894.13;4935847;29;19923;-86
2023/04/08 05:53:04;;;;;;;;;;;;;;;6.79;100.00;100892.56;4932449;29;19926;-86
2023/04/08 05:55:30;;;;;;;;;;;;;;;6.76;100.00;100899.81;4920016;29;19918;-86
2023/04/08 05:57:56;;;;;;;;;;;;;;;6.71;100.00;100900.16;4921628;29;19942;-86
2023/04/08 06:00:21;;;;;;;;;;;;;;;6.70;100.00;100907.19;4916647;29;19946;-85
2023/04/08 06:02:47;;;;;;;;;;;;;;;6.68;100.00;100898.59;4939116;29;19931;-86
2023/04/08 06:05:13;;;;;;;;;;;;;;;6.70;100.00;100898.47;4925288;29;19919;-86
2023/04/08 06:07:38;;;;;;;;;;;;;;;6.70;100.00;100901.09;4914429;29;20014;-86
2023/04/08 06:10:05;;;;;;;;;;;;;;;6.70;100.00;100909.00;4938739;29;20376;-86
2023/04/08 06:12:34;;;;;;;;;;;;;;;6.70;100.00;100922.13;4934503;28;20399;-86
2023/04/08 06:14:59;;;;;;;;;;;;;;;6.68;100.00;100918.75;4941226;29;20009;-86
2023/04/08 06:17:25;;;;;;;;;;;;;;;6.69;100.00;100917.81;4937693;29;20026;-86
2023/04/08 06:19:51;;;;;;;;;;;;;;;6.69;100.00;100912.53;4954455;28;19934;-86
2023/04/08 06:22:16;;;;;;;;;;;;;;;6.68;100.00;100922.22;4914939;29;19919;-86
2023/04/08 06:24:42;;;;;;;;;;;;;;;6.74;100.00;100925.34;4922804;29;19926;-86
2023/04/08 06:27:07;;;;;;;;;;;;;;;6.79;100.00;100918.00;4900735;29;19919;-86
2023/04/08 06:29:33;;;;;;;;;;;;;;;6.84;100.00;100913.28;4932571;29;20049;-86
2023/04/08 06:31:59;;;;;;;;;;;;;;;6.89;100.00;100920.81;4910178;29;19974;-86
2023/04/08 06:34:25;;;;;;;;;;;;;;;6.91;100.00;100916.31;4925318;29;19931;-86
2023/04/08 06:36:50;;;;;;;;;;;;;;;6.98;100.00;100914.06;4929777;29;19923;-85
2023/04/08 06:39:16;;;;;;;;;;;;;;;7.03;100.00;100912.81;4935244;29;20326;-85
2023/04/08 06:41:42;;;;;;;;;;;;;;;7.07;100.00;100922.13;4939653;29;19923;-86
2023/04/08 06:44:24;;;;;;;;;;;;;;;7.12;100.00;100918.38;4930954;29;19929;-86
2023/04/08 06:46:50;;;;;;;;;;;;;;;7.16;100.00;100922.44;4915507;29;20025;-85
2023/04/08 06:49:15;;;;;;;;;;;;;;;7.18;100.00;100923.19;4933434;29;19922;-86
2023/04/08 06:51:41;;;;;;;;;;;;;;;7.22;100.00;100926.41;4915468;29;20367;-86
2023/04/08 06:54:08;;;;;;;;;;;;;;;7.30;100.00;100922.28;4916433;29;19923;-86
2023/04/08 06:56:35;;;;;;;;;;;;;;;7.45;100.00;100922.13;4919733;29;19971;-86
2023/04/08 06:59:00;;;;;;;;;;;;;;;7.60;100.00;100919.34;4913017;29;20007;-85
2023/04/08 07:01:26;;;;;;;;;;;;;;;7.82;100.00;100913.28;4928417;29;19986;-85
2023/04/08 07:03:51;;;;;;;;;;;;;;;8.03;100.00;100916.13;4915702;29;19927;-85
2023/04/08 07:06:17;;;;;;;;;;;;;;;8.19;100.00;100917.56;4905184;29;19939;-86
2023/04/08 07:08:43;;;;;;;;;;;;;;;8.34;100.00;100920.00;4913424;29;19977;-86
2023/04/08 07:11:08;;;;;;;;;;;;;;;8.37;100.00;100922.41;4913297;29;19919;-86
2023/04/08 07:13:34;;;;;;;;;;;;;;;8.49;100.00;100921.44;4914877;29;19923;-87
2023/04/08 07:16:00;;;;;;;;;;;;;;;8.54;100.00;100919.34;4912391;29;20253;-86
2023/04/08 07:18:25;;;;;;;;;;;;;;;8.53;100.00;100922.06;4924059;29;19985;-86
2023/04/08 07:20:52;;;;;;;;;;;;;;;8.55;100.00;100930.72;4912274;29;20344;-86
2023/04/08 07:23:18;;;;;;;;;;;;;;;8.50;100.00;100931.03;4915671;29;19927;-87
2023/04/08 07:25:44;;;;;;;;;;;;;;;8.51;100.00;100927.44;4904013;29;19930;-86
2023/04/08 07:28:10;;;;;;;;;;;;;;;8.46;100.00;100939.31;4926549;29;19942;-86
2023/04/08 07:30:35;;;;;;;;;;;;;;;8.39;100.00;100939.75;4922051;29;19922;-87
2023/04/08 07:33:01;;;;;;;;;;;;;;;8.43;100.00;100938.56;4947012;29;20450;-87
2023/04/08 07:35:27;;;;;;;;;;;;;;;8.44;100.00;100940.25;4936440;29;19919;-87
2023/04/08 07:37:53;;;;;;;;;;;;;;;8.46;100.00;100940.13;4933941;29;20307;-86
2023/04/08 07:40:19;;;;;;;;;;;;;;;8.51;100.00;100935.34;4917506;29;19926;-86
2023/04/08 07:42:45;;;;;;;;;;;;;;;8.55;100.00;100947.34;4933908;29;19926;-86
2023/04/08 07:45:11;;;;;;;;;;;;;;;8.65;100.00;100947.47;4903110;29;19919;-86
2023/04/08 07:47:36;;;;;;;;;;;;;;;8.83;100.00;100944.38;4925035;29;20100;-87
2023/04/08 07:50:02;;;;;;;;;;;;;;;8.99;100.00;100949.28;4928352;29;19934;-86
2023/04/08 07:52:31;;;;;;;;;;;;;;;9.21;100.00;100954.63;4955170;28;19926;-86
2023/04/08 07:54:57;;;;;;;;;;;;;;;9.27;100.00;100952.34;4915055;29;19923;-87
2023/04/08 07:57:22;;;;;;;;;;;;;;;9.46;100.00;100964.03;4931099;29;19918;-86
2023/04/08 07:59:48;;;;;;;;;;;;;;;9.55;100.00;100959.84;4924672;29;19918;-87
2023/04/08 08:02:13;;;;;;;;;;;;;;;9.62;100.00;100958.34;4923426;29;19923;-88
2023/04/08 08:04:39;;;;;;;;;;;;;;;9.59;100.00;100963.88;4913887;29;19943;-87
2023/04/08 08:07:05;;;;;;;;;;;;;;;9.65;100.00;100963.38;4930794;29;19931;-87
2023/04/08 08:09:30;;;;;;;;;;;;;;;9.77;100.00;100958.91;4917278;29;19994;-88
2023/04/08 08:11:56;;;;;;;;;;;;;;;9.92;100.00;100963.91;4882838;29;19922;-88
2023/04/08 08:14:22;;;;;;;;;;;;;;;9.99;100.00;100959.78;4932520;29;21397;-87
2023/04/08 08:16:48;;;;;;;;;;;;;;;10.08;100.00;100952.88;4923462;29;19923;-88
2023/04/08 08:19:14;;;;;;;;;;;;;;;10.05;100.00;100951.34;4931472;29;19962;-87
2023/04/08 08:21:40;;;;;;;;;;;;;;;10.05;100.00;100964.53;4934548;29;19957;-87
2023/04/08 08:24:05;;;;;;;;;;;;;;;10.16;100.00;100970.75;4912670;29;21210;-88
2023/04/08 08:26:33;;;;;;;;;;;;;;;10.31;100.00;100963.31;4915111;29;19946;-89
2023/04/08 08:29:00;;;;;;;;;;;;;;;10.40;100.00;100948.50;4947736;29;19926;-88
2023/04/08 08:31:25;;;;;;;;;;;;;;;10.50;100.00;100961.78;4931188;29;19974;-87
2023/04/08 08:33:51;;;;;;;;;;;;;;;10.63;100.00;100954.50;4932829;29;20005;-88
2023/04/08 08:36:17;;;;;;;;;;;;;;;10.69;100.00;100954.94;4932522;29;19919;-86
2023/04/08 08:38:43;;;;;;;;;;;;;;;10.71;100.00;100959.13;4932946;29;20303;-88
2023/04/08 08:41:08;;;;;;;;;;;;;;;10.78;100.00;100960.25;4924391;29;19926;-89
2023/04/08 08:43:34;;;;;;;;;;;;;;;10.71;100.00;100952.97;4903638;29;19926;-88
2023/04/08 08:46:00;;;;;;;;;;;;;;;10.75;100.00;100967.63;4921074;29;20284;-89
2023/04/08 08:48:26;;;;;;;;;;;;;;;10.66;100.00;100953.38;4934528;29;19922;-87
2023/04/08 08:50:51;;;;;;;;;;;;;;;10.60;100.00;100960.03;4904156;29;19969;-87
2023/04/08 08:53:18;;;;;;;;;;;;;;;10.61;100.00;100964.34;4923025;29;20372;-90
2023/04/08 08:55:44;;;;;;;;;;;;;;;10.66;100.00;100958.66;4925492;29;19919;-86
2023/04/08 08:58:09;;;;;;;;;;;;;;;10.65;100.00;100959.66;4934178;29;19929;-89
2023/04/08 09:00:36;;;;;;;;;;;;;;;10.71;100.00;100964.41;4920554;29;19951;-89
2023/04/08 09:03:18;;;;;;;;;;;;;;;10.72;100.00;100965.25;4924406;29;19933;-89
2023/04/08 09:05:55;;;;;;;;;;;;;;;10.71;100.00;100966.19;4926152;29;19958;-89
2023/04/08 09:08:30;;;;;;;;;;;;;;;10.77;100.00;100961.22;4919231;29;19926;-88
2023/04/08 09:11:15;;;;;;;;;;;;;;;10.86;100.00;100964.88;4925965;29;19927;-88
2023/04/08 09:13:41;;;;;;;;;;;;;;;10.88;100.00;100967.38;4926694;29;19925;-88
2023/04/08 09:16:09;;;;;;;;;;;;;;;10.95;100.00;100971.19;4928284;29;20376;-88
2023/04/08 09:18:35;;;;;;;;;;;;;;;11.07;100.00;100963.16;4926462;29;19927;-89
2023/04/08 09:21:01;;;;;;;;;;;;;;;11.11;100.00;100972.47;4925738;29;20384;-89
2023/04/08 09:23:36;;;;;;;;;;;;;;;11.13;100.00;100971.38;4930224;29;19926;-89
2023/04/08 09:26:12;;;;;;;;;;;;;;;10.96;100.00;100969.38;4913726;29;19934;-87
2023/04/08 09:28:39;;;;;;;;;;;;;;;10.90;100.00;100966.28;4896655;29;20244;-87
2023/04/08 09:31:24;;;;;;;;;;;;;;;10.84;100.00;100964.19;4929057;29;19927;-87
2023/04/08 09:33:50;;;;;;;;;;;;;;;10.87;100.00;100965.72;4934967;29;19961;-89
2023/04/08 09:36:16;;;;;;;;;;;;;;;10.82;100.00;100963.47;4896324;29;19931;-88
2023/04/08 09:38:42;;;;;;;;;;;;;;;10.89;100.00;100961.97;4914100;29;20414;-88
2023/04/08 09:41:10;;;;;;;;;;;;;;;10.94;100.00;100958.91;4915378;29;20372;-90
2023/04/08 09:43:41;;;;;;;;;;;;;;;11.09;100.00;100962.03;4945649;28;19922;-86
2023/04/08 09:46:10;;;;;;;;;;;;;;;11.12;100.00;100963.56;4929860;29;19922;-89
2023/04/08 09:48:41;;;;;;;;;;;;;;;11.26;100.00;100955.25;4914224;29;19919;-88
2023/04/08 09:51:11;;;;;;;;;;;;;;;11.27;100.00;100967.53;4939811;29;19970;-89
2023/04/08 09:53:40;;;;;;;;;;;;;;;11.24;100.00;100961.66;4913525;29;19982;-89
2023/04/08 09:56:06;;;;;;;;;;;;;;;11.15;100.00;100963.28;4914927;29;19919;-89
2023/04/08 09:58:48;;;;;;;;;;;;;;;11.13;100.00;100962.59;4930405;29;20383;-89
2023/04/08 10:01:15;;;;;;;;;;;;;;;11.14;100.00;100954.53;4935744;29;19923;-89
2023/04/08 10:03:47;;;;;;;;;;;;;;;11.22;100.00;100959.16;4924966;29;19929;-89
2023/04/08 10:06:14;;;;;;;;;;;;;;;11.37;100.00;100956.94;4910362;29;19950;-88
2023/04/08 10:08:40;;;;;;;;;;;;;;;11.53;100.00;100948.47;4916465;29;20418;-87
2023/04/08 10:11:06;;;;;;;;;;;;;;;11.61;100.00;100953.06;4914249;29;19927;-88
2023/04/08 10:13:32;;;;;;;;;;;;;;;11.77;100.00;100944.56;4935505;28;20017;-88
2023/04/08 10:16:17;;;;;;;;;;;;;;;11.84;100.00;100957.25;4944563;28;20009;-88
2023/04/08 10:18:43;;;;;;;;;;;;;;;11.73;100.00;100943.19;4898932;29;20012;-88
2023/04/08 10:21:27;;;;;;;;;;;;;;;11.63;100.00;100948.47;4933702;29;20018;-89
2023/04/08 10:23:54;;;;;;;;;;;;;;;11.51;100.00;100957.53;4914731;29;19930;-88
2023/04/08 10:26:32;;;;;;;;;;;;;;;11.45;100.00;100950.13;4914440;29;19923;-89
2023/04/08 10:29:13;;;;;;;;;;;;;;;11.36;100.00;100954.41;4935392;29;19919;-88
2023/04/08 10:31:39;;;;;;;;;;;;;;;11.37;100.00;100950.81;4907500;29;20001;-89
2023/04/08 10:34:17;;;;;;;;;;;;;;;11.25;100.00;100944.78;4938366;29;20021;-89
2023/04/08 10:36:44;;;;;;;;;;;;;;;11.23;100.00;100952.88;4929748;29;19919;-87
2023/04/08 10:39:10;;;;;;;;;;;;;;;11.23;100.00;100946.72;4894398;29;20026;-88
2023/04/08 10:41:41;;;;;;;;;;;;;;;11.27;100.00;100956.09;4929328;29;19936;-89
2023/04/08 10:44:14;;;;;;;;;;;;;;;11.29;100.00;100951.50;4922661;29;19922;-89
2023/04/08 10:46:40;;;;;;;;;;;;;;;11.35;100.00;100942.19;4928324;29;19974;-89
2023/04/08 10:49:07;;;;;;;;;;;;;;;11.37;100.00;100953.47;4914309;29;20275;-89
2023/04/08 10:51:34;;;;;;;;;;;;;;;11.39;100.00;100957.63;4928314;29;19918;-89
2023/04/08 10:54:26;;;;;;;;;;;;;;;11.40;100.00;100946.06;4895764;29;20288;-88
2023/04/08 10:56:52;;;;;;;;;;;;;;;11.25;100.00;100952.72;4892997;29;20029;-90
2023/04/08 10:59:28;;;;;;;;;;;;;;;11.22;100.00;100945.91;4926278;29;19962;-89
2023/04/08 11:01:54;;;;;;;;;;;;;;;11.16;100.00;100943.81;4912605;29;19922;-89
2023/04/08 11:04:22;;;;;;;;;;;;;;;11.13;100.00;100939.63;4919816;29;20277;-88
2023/04/08 11:06:48;;;;;;;;;;;;;;;11.08;100.00;100944.50;4931975;29;19919;-90
2023/04/08 11:09:15;;;;;;;;;;;;;;;11.10;100.00;100945.19;4930409;29;19933;-88
2023/04/08 11:11:41;;;;;;;;;;;;;;;11.07;100.00;100942.00;4912847;29;20398;-80
2023/04/08 11:14:07;;;;;;;;;;;;;;;11.06;100.00;100950.88;4912371;29;19927;-80
2023/04/08 11:16:33;;;;;;;;;;;;;;;11.00;100.00;100946.97;4914866;29;20426;-89
2023/04/08 11:19:01;;;;;;;;;;;;;;;11.03;100.00;100947.53;4911353;29;20010;-89
2023/04/08 11:21:28;;;;;;;;;;;;;;;11.06;100.00;100956.16;4916796;29;19934;-89
2023/04/08 11:23:54;;;;;;;;;;;;;;;11.12;100.00;100939.75;4932758;29;20021;-88
2023/04/08 11:26:21;;;;;;;;;;;;;;;11.12;100.00;100948.53;4931159;29;20014;-89
2023/04/08 11:28:49;;;;;;;;;;;;;;;11.17;100.00;100948.13;4928939;29;20522;-88
2023/04/08 11:31:15;;;;;;;;;;;;;;;11.18;100.00;100941.84;4932703;29;19968;-90
2023/04/08 11:33:45;;;;;;;;;;;;;;;11.25;100.00;100943.00;4935676;29;19966;-89
2023/04/08 11:36:11;;;;;;;;;;;;;;;11.26;100.00;100943.84;4935070;29;20051;-79
2023/04/08 11:38:40;;;;;;;;;;;;;;;11.39;100.00;100930.31;4945016;28;19970;-80
2023/04/08 11:41:06;;;;;;;;;;;;;;;11.47;100.00;100940.22;4929766;29;20283;-90
2023/04/08 11:43:32;;;;;;;;;;;;;;;11.52;100.00;100938.00;4916456;29;20412;-89
2023/04/08 11:45:57;;;;;;;;;;;;;;;11.51;100.00;100939.84;4929143;29;19950;-88
2023/04/08 11:48:23;;;;;;;;;;;;;;;11.49;100.00;100936.47;4900798;29;19919;-88
2023/04/08 11:51:00;;;;;;;;;;;;;;;11.64;100.00;100933.44;4914112;29;19919;-90
2023/04/08 11:53:27;;;;;;;;;;;;;;;11.77;100.00;100936.63;4914842;29;19923;-88
2023/04/08 11:55:53;;;;;;;;;;;;;;;11.84;100.00;100934.25;4927988;29;19919;-79
2023/04/08 11:58:18;;;;;;;;;;;;;;;11.90;100.00;100931.03;4902747;29;19919;-81
2023/04/08 12:00:44;;;;;;;;;;;;;;;11.95;100.00;100924.47;4926367;29;19922;-87
2023/04/08 12:03:10;;;;;;;;;;;;;;;11.88;100.00;100932.16;4915802;29;20406;-89
2023/04/08 12:05:36;;;;;;;;;;;;;;;11.88;100.00;100932.16;4928396;29;19923;-89
2023/04/08 12:08:02;;;;;;;;;;;;;;;11.87;100.00;100936.63;4911456;29;19926;-80
2023/04/08 12:10:28;;;;;;;;;;;;;;;11.93;100.00;100929.91;4931802;29;20327;-80
2023/04/08 12:12:53;;;;;;;;;;;;;;;11.98;100.00;100929.47;4896236;29;19919;-88
2023/04/08 12:15:19;;;;;;;;;;;;;;;12.09;100.00;100933.84;4936419;29;20371;-88
2023/04/08 12:17:45;;;;;;;;;;;;;;;12.14;100.00;100929.78;4934277;29;19930;-90
2023/04/08 12:20:11;;;;;;;;;;;;;;;12.34;100.00;100920.94;4935350;29;19919;-90
2023/04/08 12:22:37;;;;;;;;;;;;;;;12.49;100.00;100919.50;4946200;28;19923;-89
2023/04/08 12:25:03;;;;;;;;;;;;;;;12.49;100.00;100919.50;4921576;29;19939;-89
2023/04/08 12:27:29;;;;;;;;;;;;;;;12.51;100.00;100922.00;4912487;29;20501;-89
2023/04/08 12:29:55;;;;;;;;;;;;;;;12.45;100.00;100915.47;4924986;29;19942;-89
2023/04/08 12:32:21;;;;;;;;;;;;;;;12.46;100.00;100914.47;4926587;29;19919;-89